sensor_id;sensor_type;location;lat;lon;timestamp;pressure;altitude;pressure_sealevel;temperature;humidity
70304;BME280;57712;48.752;11.348;2023-04-26T00:01:29;97463.59;;;6.19;100.00
70304;BME280;57712;48.752;11.348;2023-04-26T00:03:56;97460.84;;;6.23;100.00
70304;BME280;57712;48.752;11.348;2023-04-26T00:06:23;97460.88;;;6.19;100.00
70304;BME280;57712;48.752;11.348;2023-04-26T00:08:50;97467.09;;;6.20;100.00
70304;BME280;57712;48.752;11.348;2023-04-26T00:11:17;97459.72;;;6.06;100.00
70304;BME280;57712;48.752;11.348;2023-04-26T00:13:44;97456.22;;;6.09;100.00
70304;BME280;57712;48.752;11.348;2023-04-26T00:16:12;97476.00;;;6.13;100.00
70304;BME280;57712;48.752;11.348;2023-04-26T00:18:39;97460.50;;;6.17;100.00
70304;BME280;57712;48.752;11.348;2023-04-26T00:21:06;97465.13;;;6.13;100.00
70304;BME280;57712;48.752;11.348;2023-04-26T00:23:32;97469.41;;;6.14;100.00
70304;BME280;57712;48.752;11.348;2023-04-26T00:25:59;97465.53;;;6.15;100.00
70304;BME280;57712;48.752;11.348;2023-04-26T00:28:27;97474.47;;;6.12;100.00
70304;BME280;57712;48.752;11.348;2023-04-26T00:30:54;97474.06;;;6.14;100.00
70304;BME280;57712;48.752;11.348;2023-04-26T00:33:23;97477.19;;;6.12;100.00
70304;BME280;57712;48.752;11.348;2023-04-26T00:35:50;97470.97;;;6.15;100.00
70304;BME280;57712;48.752;11.348;2023-04-26T00:38:17;97470.19;;;6.25;100.00
70304;BME280;57712;48.752;11.348;2023-04-26T00:40:44;97468.66;;;6.06;100.00
70304;BME280;57712;48.752;11.348;2023-04-26T00:43:10;97476.03;;;6.06;100.00
70304;BME280;57712;48.752;11.348;2023-04-26T00:45:37;97477.19;;;6.08;100.00
70304;BME280;57712;48.752;11.348;2023-04-26T00:48:04;97474.47;;;6.08;100.00
70304;BME280;57712;48.752;11.348;2023-04-26T00:50:31;97472.91;;;6.11;100.00
70304;BME280;57712;48.752;11.348;2023-04-26T00:53:00;97477.97;;;6.13;100.00
70304;BME280;57712;48.752;11.348;2023-04-26T00:55:28;97469.81;;;6.16;100.00
70304;BME280;57712;48.752;11.348;2023-04-26T00:57:55;97466.31;;;6.16;100.00
70304;BME280;57712;48.752;11.348;2023-04-26T01:00:21;97472.53;;;6.20;100.00
70304;BME280;57712;48.752;11.348;2023-04-26T01:02:48;97483.41;;;6.16;100.00
70304;BME280;57712;48.752;11.348;2023-04-26T01:05:15;97483.41;;;6.02;100.00
70304;BME280;57712;48.752;11.348;2023-04-26T01:07:43;97483.00;;;6.00;100.00
70304;BME280;57712;48.752;11.348;2023-04-26T01:10:10;97487.69;;;5.96;100.00
70304;BME280;57712;48.752;11.348;2023-04-26T01:12:38;97491.94;;;6.00;100.00
70304;BME280;57712;48.752;11.348;2023-04-26T01:15:05;97489.59;;;6.02;100.00
70304;BME280;57712;48.752;11.348;2023-04-26T01:17:32;97494.28;;;5.98;100.00
70304;BME280;57712;48.752;11.348;2023-04-26T01:19:59;97491.16;;;5.93;100.00
70304;BME280;57712;48.752;11.348;2023-04-26T01:22:25;97483.41;;;5.95;100.00
70304;BME280;57712;48.752;11.348;2023-04-26T01:24:54;97498.91;;;5.84;100.00
70304;BME280;57712;48.752;11.348;2023-04-26T01:27:21;97498.50;;;5.82;100.00
70304;BME280;57712;48.752;11.348;2023-04-26T01:29:48;97498.09;;;5.72;100.00
70304;BME280;57712;48.752;11.348;2023-04-26T01:32:15;97495.78;;;5.67;100.00
70304;BME280;57712;48.752;11.348;2023-04-26T01:34:42;97503.53;;;5.72;100.00
70304;BME280;57712;48.752;11.348;2023-04-26T01:37:08;97503.53;;;5.72;100.00
70304;BME280;57712;48.752;11.348;2023-04-26T01:39:35;97500.06;;;5.65;100.00
70304;BME280;57712;48.752;11.348;2023-04-26T01:42:03;97503.53;;;5.58;100.00
70304;BME280;57712;48.752;11.348;2023-04-26T01:44:30;97500.44;;;5.56;100.00
70304;BME280;57712;48.752;11.348;2023-04-26T01:46:57;97504.31;;;5.62;100.00
70304;BME280;57712;48.752;11.348;2023-04-26T01:49:24;97511.28;;;5.56;100.00
70304;BME280;57712;48.752;11.348;2023-04-26T01:51:50;97509.75;;;5.55;100.00
70304;BME280;57712;48.752;11.348;2023-04-26T01:54:17;97508.56;;;5.49;100.00
70304;BME280;57712;48.752;11.348;2023-04-26T01:56:44;97506.63;;;5.46;100.00
70304;BME280;57712;48.752;11.348;2023-04-26T01:59:11;97512.81;;;5.43;100.00
70304;BME280;57712;48.752;11.348;2023-04-26T02:01:40;97511.28;;;5.42;100.00
70304;BME280;57712;48.752;11.348;2023-04-26T02:04:12;97519.41;;;5.49;100.00
70304;BME280;57712;48.752;11.348;2023-04-26T02:06:39;97516.28;;;5.40;100.00
70304;BME280;57712;48.752;11.348;2023-04-26T02:09:07;97519.78;;;5.40;100.00
70304;BME280;57712;48.752;11.348;2023-04-26T02:11:35;97520.94;;;5.39;100.00
70304;BME280;57712;48.752;11.348;2023-04-26T02:14:02;97520.16;;;5.39;100.00
70304;BME280;57712;48.752;11.348;2023-04-26T02:16:28;97524.47;;;5.47;100.00
70304;BME280;57712;48.752;11.348;2023-04-26T02:18:55;97517.44;;;5.39;100.00
70304;BME280;57712;48.752;11.348;2023-04-26T02:21:22;97528.31;;;5.39;100.00
70304;BME280;57712;48.752;11.348;2023-04-26T02:23:48;97521.28;;;5.31;100.00
70304;BME280;57712;48.752;11.348;2023-04-26T02:26:15;97511.59;;;5.30;100.00
70304;BME280;57712;48.752;11.348;2023-04-26T02:28:41;97512.75;;;5.25;100.00
70304;BME280;57712;48.752;11.348;2023-04-26T02:31:08;97510.44;;;5.27;100.00
70304;BME280;57712;48.752;11.348;2023-04-26T02:33:35;97507.72;;;5.24;100.00
70304;BME280;57712;48.752;11.348;2023-04-26T02:36:03;97519.28;;;5.06;100.00
70304;BME280;57712;48.752;11.348;2023-04-26T02:38:37;97515.78;;;5.06;100.00
70304;BME280;57712;48.752;11.348;2023-04-26T02:41:03;97520.41;;;4.98;100.00
70304;BME280;57712;48.752;11.348;2023-04-26T02:43:30;97511.13;;;5.06;100.00
70304;BME280;57712;48.752;11.348;2023-04-26T02:45:57;97512.69;;;5.04;100.00
70304;BME280;57712;48.752;11.348;2023-04-26T02:48:26;97503.38;;;5.01;100.00
70304;BME280;57712;48.752;11.348;2023-04-26T02:50:54;97507.22;;;5.00;100.00
70304;BME280;57712;48.752;11.348;2023-04-26T02:53:20;97504.13;;;4.98;100.00
70304;BME280;57712;48.752;11.348;2023-04-26T02:55:47;97500.22;;;4.96;100.00
70304;BME280;57712;48.752;11.348;2023-04-26T02:58:14;97505.63;;;4.85;100.00
70304;BME280;57712;48.752;11.348;2023-04-26T03:00:45;97505.22;;;4.83;100.00
70304;BME280;57712;48.752;11.348;2023-04-26T03:03:13;97501.69;;;4.79;100.00
70304;BME280;57712;48.752;11.348;2023-04-26T03:05:40;97509.47;;;4.80;100.00
70304;BME280;57712;48.752;11.348;2023-04-26T03:08:09;97504.06;;;4.84;100.00
70304;BME280;57712;48.752;11.348;2023-04-26T03:10:36;97504.00;;;4.77;100.00
70304;BME280;57712;48.752;11.348;2023-04-26T03:13:05;97514.91;;;4.84;100.00
70304;BME280;57712;48.752;11.348;2023-04-26T03:15:32;97503.28;;;4.87;100.00
70304;BME280;57712;48.752;11.348;2023-04-26T03:17:59;97505.59;;;4.81;100.00
70304;BME280;57712;48.752;11.348;2023-04-26T03:20:26;97506.41;;;4.89;100.00
70304;BME280;57712;48.752;11.348;2023-04-26T03:22:53;97511.03;;;4.88;100.00
70304;BME280;57712;48.752;11.348;2023-04-26T03:25:19;97511.81;;;4.89;100.00
70304;BME280;57712;48.752;11.348;2023-04-26T03:27:47;97514.16;;;4.87;100.00
70304;BME280;57712;48.752;11.348;2023-04-26T03:30:14;97517.63;;;4.84;100.00
70304;BME280;57712;48.752;11.348;2023-04-26T03:32:40;97514.53;;;4.82;100.00
70304;BME280;57712;48.752;11.348;2023-04-26T03:35:08;97513.38;;;4.83;100.00
70304;BME280;57712;48.752;11.348;2023-04-26T03:37:35;97526.53;;;4.81;100.00
70304;BME280;57712;48.752;11.348;2023-04-26T03:40:07;97524.22;;;4.83;100.00
70304;BME280;57712;48.752;11.348;2023-04-26T03:42:35;97529.66;;;4.83;100.00
70304;BME280;57712;48.752;11.348;2023-04-26T03:45:02;97535.47;;;4.85;100.00
70304;BME280;57712;48.752;11.348;2023-04-26T03:47:30;97529.66;;;4.86;100.00
70304;BME280;57712;48.752;11.348;2023-04-26T03:49:57;97527.72;;;4.87;100.00
70304;BME280;57712;48.752;11.348;2023-04-26T03:52:24;97525.00;;;4.87;100.00
70304;BME280;57712;48.752;11.348;2023-04-26T03:54:51;97530.44;;;4.87;100.00
70304;BME280;57712;48.752;11.348;2023-04-26T03:57:17;97538.19;;;4.88;100.00
70304;BME280;57712;48.752;11.348;2023-04-26T03:59:44;97526.56;;;4.88;100.00
70304;BME280;57712;48.752;11.348;2023-04-26T04:02:10;97538.19;;;4.85;100.00
70304;BME280;57712;48.752;11.348;2023-04-26T04:04:37;97541.28;;;4.87;100.00
70304;BME280;57712;48.752;11.348;2023-04-26T04:07:05;97545.16;;;4.86;100.00
70304;BME280;57712;48.752;11.348;2023-04-26T04:09:32;97547.91;;;4.93;100.00
70304;BME280;57712;48.752;11.348;2023-04-26T04:11:58;97545.59;;;4.95;100.00
70304;BME280;57712;48.752;11.348;2023-04-26T04:14:25;97549.88;;;4.96;100.00
70304;BME280;57712;48.752;11.348;2023-04-26T04:16:51;97551.41;;;4.97;100.00
70304;BME280;57712;48.752;11.348;2023-04-26T04:19:18;97550.69;;;5.04;100.00
70304;BME280;57712;48.752;11.348;2023-04-26T04:21:45;97546.03;;;5.04;100.00
70304;BME280;57712;48.752;11.348;2023-04-26T04:24:11;97550.25;;;4.98;100.00
70304;BME280;57712;48.752;11.348;2023-04-26T04:26:38;97545.97;;;4.93;100.00
70304;BME280;57712;48.752;11.348;2023-04-26T04:29:04;97549.47;;;4.94;100.00
70304;BME280;57712;48.752;11.348;2023-04-26T04:31:35;97555.28;;;4.96;100.00
70304;BME280;57712;48.752;11.348;2023-04-26T04:34:02;97546.69;;;4.83;100.00
70304;BME280;57712;48.752;11.348;2023-04-26T04:36:29;97552.97;;;4.91;100.00
70304;BME280;57712;48.752;11.348;2023-04-26T04:38:56;97554.13;;;4.97;100.00
70304;BME280;57712;48.752;11.348;2023-04-26T04:41:23;97544.81;;;4.98;100.00
70304;BME280;57712;48.752;11.348;2023-04-26T04:43:50;97559.66;;;5.15;100.00
70304;BME280;57712;48.752;11.348;2023-04-26T04:46:17;97561.59;;;5.14;100.00
70304;BME280;57712;48.752;11.348;2023-04-26T04:48:43;97562.41;;;5.22;100.00
70304;BME280;57712;48.752;11.348;2023-04-26T04:51:10;97565.53;;;5.28;100.00
70304;BME280;57712;48.752;11.348;2023-04-26T04:53:37;97562.41;;;5.26;100.00
70304;BME280;57712;48.752;11.348;2023-04-26T04:56:04;97556.25;;;5.39;100.00
70304;BME280;57712;48.752;11.348;2023-04-26T04:58:30;97560.16;;;5.45;100.00
70304;BME280;57712;48.752;11.348;2023-04-26T05:00:57;97570.22;;;5.38;100.00
70304;BME280;57712;48.752;11.348;2023-04-26T05:03:26;97567.53;;;5.45;100.00
70304;BME280;57712;48.752;11.348;2023-04-26T05:05:53;97572.19;;;5.44;100.00
70304;BME280;57712;48.752;11.348;2023-04-26T05:08:20;97570.66;;;5.47;100.00
70304;BME280;57712;48.752;11.348;2023-04-26T05:10:47;97561.72;;;5.50;100.00
70304;BME280;57712;48.752;11.348;2023-04-26T05:13:13;97560.19;;;5.56;100.00
70304;BME280;57712;48.752;11.348;2023-04-26T05:15:40;97576.13;;;5.61;100.00
70304;BME280;57712;48.752;11.348;2023-04-26T05:18:07;97568.72;;;5.55;100.00
70304;BME280;57712;48.752;11.348;2023-04-26T05:20:34;97557.13;;;5.68;100.00
70304;BME280;57712;48.752;11.348;2023-04-26T05:23:00;97555.53;;;5.60;100.00
70304;BME280;57712;48.752;11.348;2023-04-26T05:25:27;97549.38;;;5.81;100.00
70304;BME280;57712;48.752;11.348;2023-04-26T05:27:54;97549.00;;;5.79;100.00
70304;BME280;57712;48.752;11.348;2023-04-26T05:30:20;97550.94;;;5.82;100.00
70304;BME280;57712;48.752;11.348;2023-04-26T05:32:47;97555.66;;;6.10;100.00
70304;BME280;57712;48.752;11.348;2023-04-26T05:35:15;97553.25;;;5.80;100.00
70304;BME280;57712;48.752;11.348;2023-04-26T05:37:42;97561.81;;;5.86;100.00
70304;BME280;57712;48.752;11.348;2023-04-26T05:40:09;97564.19;;;6.01;100.00
70304;BME280;57712;48.752;11.348;2023-04-26T05:42:37;97569.63;;;6.12;100.00
70304;BME280;57712;48.752;11.348;2023-04-26T05:45:04;97568.88;;;6.29;100.00
70304;BME280;57712;48.752;11.348;2023-04-26T05:47:31;97572.00;;;6.39;100.00
70304;BME280;57712;48.752;11.348;2023-04-26T05:49:58;97576.66;;;6.42;100.00
70304;BME280;57712;48.752;11.348;2023-04-26T05:52:24;97587.53;;;6.56;100.00
70304;BME280;57712;48.752;11.348;2023-04-26T05:54:52;97585.59;;;6.67;100.00
70304;BME280;57712;48.752;11.348;2023-04-26T05:57:18;97585.56;;;6.74;100.00
70304;BME280;57712;48.752;11.348;2023-04-26T05:59:45;97586.72;;;6.73;100.00
70304;BME280;57712;48.752;11.348;2023-04-26T06:02:12;97590.16;;;7.06;100.00
70304;BME280;57712;48.752;11.348;2023-04-26T06:04:39;97589.38;;;7.16;100.00
70304;BME280;57712;48.752;11.348;2023-04-26T06:07:06;97589.00;;;7.07;100.00
70304;BME280;57712;48.752;11.348;2023-04-26T06:09:32;97591.00;;;6.88;100.00
70304;BME280;57712;48.752;11.348;2023-04-26T06:11:59;97591.38;;;6.94;100.00
70304;BME280;57712;48.752;11.348;2023-04-26T06:14:26;97592.94;;;6.99;100.00
70304;BME280;57712;48.752;11.348;2023-04-26T06:16:56;97587.50;;;6.91;100.00
70304;BME280;57712;48.752;11.348;2023-04-26T06:19:23;97584.72;;;7.13;100.00
70304;BME280;57712;48.752;11.348;2023-04-26T06:21:50;97591.25;;;7.40;100.00
70304;BME280;57712;48.752;11.348;2023-04-26T06:24:20;97593.47;;;7.63;100.00
70304;BME280;57712;48.752;11.348;2023-04-26T06:26:47;97595.97;;;7.22;100.00
70304;BME280;57712;48.752;11.348;2023-04-26T06:29:13;97602.88;;;7.51;100.00
70304;BME280;57712;48.752;11.348;2023-04-26T06:31:40;97601.22;;;7.68;100.00
70304;BME280;57712;48.752;11.348;2023-04-26T06:34:07;97599.66;;;7.71;100.00
70304;BME280;57712;48.752;11.348;2023-04-26T06:36:41;97603.88;;;7.86;100.00
70304;BME280;57712;48.752;11.348;2023-04-26T06:39:07;97612.66;;;8.19;100.00
70304;BME280;57712;48.752;11.348;2023-04-26T06:41:34;97617.25;;;8.29;100.00
70304;BME280;57712;48.752;11.348;2023-04-26T06:44:01;97616.09;;;8.82;100.00
70304;BME280;57712;48.752;11.348;2023-04-26T06:46:27;97617.19;;;8.43;100.00
70304;BME280;57712;48.752;11.348;2023-04-26T06:48:54;97623.41;;;8.47;100.00
70304;BME280;57712;48.752;11.348;2023-04-26T06:51:21;97616.66;;;8.03;100.00
70304;BME280;57712;48.752;11.348;2023-04-26T06:53:48;97621.38;;;8.58;100.00
70304;BME280;57712;48.752;11.348;2023-04-26T06:56:15;97618.78;;;8.85;100.00
70304;BME280;57712;48.752;11.348;2023-04-26T06:58:57;97625.63;;;9.42;100.00
70304;BME280;57712;48.752;11.348;2023-04-26T07:01:25;97624.78;;;9.11;100.00
70304;BME280;57712;48.752;11.348;2023-04-26T07:03:51;97626.13;;;9.33;100.00
70304;BME280;57712;48.752;11.348;2023-04-26T07:06:19;97629.75;;;9.23;100.00
70304;BME280;57712;48.752;11.348;2023-04-26T07:08:46;97626.22;;;9.60;100.00
70304;BME280;57712;48.752;11.348;2023-04-26T07:11:13;97617.25;;;9.56;100.00
70304;BME280;57712;48.752;11.348;2023-04-26T07:13:39;97624.16;;;9.98;100.00
70304;BME280;57712;48.752;11.348;2023-04-26T07:16:06;97620.38;;;9.89;100.00
70304;BME280;57712;48.752;11.348;2023-04-26T07:18:33;97626.13;;;9.67;100.00
70304;BME280;57712;48.752;11.348;2023-04-26T07:21:00;97626.22;;;9.60;100.00
70304;BME280;57712;48.752;11.348;2023-04-26T07:23:28;97622.88;;;9.76;100.00
70304;BME280;57712;48.752;11.348;2023-04-26T07:25:54;97618.94;;;9.46;100.00
70304;BME280;57712;48.752;11.348;2023-04-26T07:28:23;97620.66;;;9.67;100.00
70304;BME280;57712;48.752;11.348;2023-04-26T07:30:49;97616.59;;;9.79;100.00
70304;BME280;57712;48.752;11.348;2023-04-26T07:33:16;97617.84;;;9.40;100.00
70304;BME280;57712;48.752;11.348;2023-04-26T07:35:43;97615.56;;;9.69;100.00
70304;BME280;57712;48.752;11.348;2023-04-26T07:38:10;97619.09;;;9.66;100.00
70304;BME280;57712;48.752;11.348;2023-04-26T07:40:39;97615.97;;;9.34;100.00
70304;BME280;57712;48.752;11.348;2023-04-26T07:43:08;97615.50;;;9.73;100.00
70304;BME280;57712;48.752;11.348;2023-04-26T07:45:35;97626.38;;;10.07;96.92
70304;BME280;57712;48.752;11.348;2023-04-26T07:48:01;97619.44;;;9.99;100.00
70304;BME280;57712;48.752;11.348;2023-04-26T07:50:28;97619.94;;;9.94;100.00
70304;BME280;57712;48.752;11.348;2023-04-26T07:52:55;97612.34;;;10.05;100.00
70304;BME280;57712;48.752;11.348;2023-04-26T07:55:22;97625.06;;;9.88;100.00
70304;BME280;57712;48.752;11.348;2023-04-26T07:57:49;97625.53;;;10.13;91.06
70304;BME280;57712;48.752;11.348;2023-04-26T08:00:16;97623.38;;;10.28;88.90
70304;BME280;57712;48.752;11.348;2023-04-26T08:02:44;97623.53;;;10.45;99.75
70304;BME280;57712;48.752;11.348;2023-04-26T08:05:13;97618.84;;;10.68;100.00
70304;BME280;57712;48.752;11.348;2023-04-26T08:07:41;97611.66;;;11.21;100.00
70304;BME280;57712;48.752;11.348;2023-04-26T08:10:09;97606.28;;;11.14;100.00
70304;BME280;57712;48.752;11.348;2023-04-26T08:12:36;97610.78;;;11.48;82.63
70304;BME280;57712;48.752;11.348;2023-04-26T08:15:04;97610.47;;;11.62;95.03
70304;BME280;57712;48.752;11.348;2023-04-26T08:17:31;97600.72;;;11.81;100.00
70304;BME280;57712;48.752;11.348;2023-04-26T08:19:58;97607.75;;;11.82;91.73
70304;BME280;57712;48.752;11.348;2023-04-26T08:22:24;97602.53;;;11.68;95.67
70304;BME280;57712;48.752;11.348;2023-04-26T08:24:54;97607.59;;;11.69;81.32
70304;BME280;57712;48.752;11.348;2023-04-26T08:27:21;97608.97;;;12.33;88.35
70304;BME280;57712;48.752;11.348;2023-04-26T08:29:48;97603.50;;;11.97;74.70
70304;BME280;57712;48.752;11.348;2023-04-26T08:32:14;97614.06;;;12.51;78.93
70304;BME280;57712;48.752;11.348;2023-04-26T08:34:41;97607.19;;;12.43;76.32
70304;BME280;57712;48.752;11.348;2023-04-26T08:37:09;97607.16;;;12.27;65.62
70304;BME280;57712;48.752;11.348;2023-04-26T08:39:36;97607.88;;;12.80;63.35
70304;BME280;57712;48.752;11.348;2023-04-26T08:42:05;97608.91;;;12.69;80.84
70304;BME280;57712;48.752;11.348;2023-04-26T08:44:40;97618.25;;;12.39;74.65
70304;BME280;57712;48.752;11.348;2023-04-26T08:47:28;97609.72;;;11.62;71.87
70304;BME280;57712;48.752;11.348;2023-04-26T08:50:00;97605.13;;;11.75;73.72
70304;BME280;57712;48.752;11.348;2023-04-26T08:52:30;97612.53;;;11.38;71.75
70304;BME280;57712;48.752;11.348;2023-04-26T08:54:58;97614.88;;;10.96;73.98
70304;BME280;57712;48.752;11.348;2023-04-26T08:57:26;97611.69;;;10.51;73.32
70304;BME280;57712;48.752;11.348;2023-04-26T08:59:54;97607.50;;;10.16;76.88
70304;BME280;57712;48.752;11.348;2023-04-26T09:02:23;97613.53;;;10.81;79.34
70304;BME280;57712;48.752;11.348;2023-04-26T09:04:50;97606.72;;;11.13;66.58
70304;BME280;57712;48.752;11.348;2023-04-26T09:07:32;97600.22;;;11.03;65.26
70304;BME280;57712;48.752;11.348;2023-04-26T09:10:03;97615.97;;;11.42;69.38
70304;BME280;57712;48.752;11.348;2023-04-26T09:12:30;97612.66;;;10.88;72.88
70304;BME280;57712;48.752;11.348;2023-04-26T09:14:57;97614.72;;;11.87;90.55
70304;BME280;57712;48.752;11.348;2023-04-26T09:17:29;97610.19;;;11.56;76.89
70304;BME280;57712;48.752;11.348;2023-04-26T09:19:57;97606.28;;;11.38;77.40
70304;BME280;57712;48.752;11.348;2023-04-26T09:24:54;97602.59;;;11.64;77.37
70304;BME280;57712;48.752;11.348;2023-04-26T09:27:21;97604.44;;;11.31;70.66
70304;BME280;57712;48.752;11.348;2023-04-26T09:35:34;97607.13;;;10.41;76.21
70304;BME280;57712;48.752;11.348;2023-04-26T09:38:05;97605.78;;;9.99;73.67
70304;BME280;57712;48.752;11.348;2023-04-26T09:40:39;97600.94;;;9.79;73.86
70304;BME280;57712;48.752;11.348;2023-04-26T09:43:11;97602.94;;;10.06;76.19
70304;BME280;57712;48.752;11.348;2023-04-26T09:45:49;97600.09;;;10.44;79.07
70304;BME280;57712;48.752;11.348;2023-04-26T09:48:18;97601.19;;;9.92;78.19
70304;BME280;57712;48.752;11.348;2023-04-26T09:51:08;97606.50;;;10.33;88.19
70304;BME280;57712;48.752;11.348;2023-04-26T09:53:44;97595.81;;;9.85;80.98
70304;BME280;57712;48.752;11.348;2023-04-26T09:56:13;97599.06;;;10.57;84.91
70304;BME280;57712;48.752;11.348;2023-04-26T10:01:09;97596.78;;;10.99;83.48
70304;BME280;57712;48.752;11.348;2023-04-26T10:03:37;97608.72;;;11.32;82.37
70304;BME280;57712;48.752;11.348;2023-04-26T10:06:05;97592.97;;;11.36;76.08
70304;BME280;57712;48.752;11.348;2023-04-26T10:08:32;97601.84;;;11.01;65.19
70304;BME280;57712;48.752;11.348;2023-04-26T10:10:59;97587.34;;;11.43;62.71
70304;BME280;57712;48.752;11.348;2023-04-26T10:13:35;97584.94;;;11.65;69.52
70304;BME280;57712;48.752;11.348;2023-04-26T10:16:03;97580.41;;;11.75;63.67
70304;BME280;57712;48.752;11.348;2023-04-26T10:18:32;97578.69;;;12.21;63.35
70304;BME280;57712;48.752;11.348;2023-04-26T10:21:06;97578.81;;;12.95;68.56
70304;BME280;57712;48.752;11.348;2023-04-26T10:23:36;97569.19;;;13.03;63.85
70304;BME280;57712;48.752;11.348;2023-04-26T10:26:03;97571.97;;;13.16;59.78
70304;BME280;57712;48.752;11.348;2023-04-26T10:31:05;97572.13;;;12.14;54.65
70304;BME280;57712;48.752;11.348;2023-04-26T10:33:33;97568.72;;;12.10;58.74
70304;BME280;57712;48.752;11.348;2023-04-26T10:36:05;97562.31;;;11.97;58.84
70304;BME280;57712;48.752;11.348;2023-04-26T10:38:33;97568.47;;;12.21;59.08
70304;BME280;57712;48.752;11.348;2023-04-26T10:41:26;97568.56;;;11.98;58.24
70304;BME280;57712;48.752;11.348;2023-04-26T10:43:53;97567.72;;;11.45;55.79
70304;BME280;57712;48.752;11.348;2023-04-26T10:46:39;97558.91;;;11.14;57.99
70304;BME280;57712;48.752;11.348;2023-04-26T10:49:13;97553.31;;;11.21;59.24
70304;BME280;57712;48.752;11.348;2023-04-26T10:52:07;97553.03;;;11.15;59.69
70304;BME280;57712;48.752;11.348;2023-04-26T10:54:50;97554.41;;;11.23;60.28
70304;BME280;57712;48.752;11.348;2023-04-26T10:57:18;97561.44;;;11.44;59.56
70304;BME280;57712;48.752;11.348;2023-04-26T11:02:52;97552.84;;;11.26;54.70
70304;BME280;57712;48.752;11.348;2023-04-26T11:05:51;97542.13;;;11.88;59.48
70304;BME280;57712;48.752;11.348;2023-04-26T11:08:28;97550.56;;;11.77;55.59
70304;BME280;57712;48.752;11.348;2023-04-26T11:11:04;97548.94;;;11.04;54.18
70304;BME280;57712;48.752;11.348;2023-04-26T11:13:38;97543.97;;;11.18;54.64
70304;BME280;57712;48.752;11.348;2023-04-26T11:16:06;97547.94;;;11.53;57.09
70304;BME280;57712;48.752;11.348;2023-04-26T11:18:35;97540.72;;;11.99;57.43
70304;BME280;57712;48.752;11.348;2023-04-26T11:21:03;97543.97;;;12.76;56.93
70304;BME280;57712;48.752;11.348;2023-04-26T11:23:30;97537.94;;;12.81;53.37
70304;BME280;57712;48.752;11.348;2023-04-26T11:25:58;97541.94;;;12.63;53.76
70304;BME280;57712;48.752;11.348;2023-04-26T11:28:24;97537.03;;;12.55;54.53
70304;BME280;57712;48.752;11.348;2023-04-26T11:30:51;97539.47;;;12.82;51.02
70304;BME280;57712;48.752;11.348;2023-04-26T11:33:20;97536.59;;;12.56;51.53
70304;BME280;57712;48.752;11.348;2023-04-26T11:35:52;97530.56;;;11.80;51.52
70304;BME280;57712;48.752;11.348;2023-04-26T11:38:23;97532.38;;;13.13;56.48
70304;BME280;57712;48.752;11.348;2023-04-26T11:41:00;97533.69;;;12.63;50.50
70304;BME280;57712;48.752;11.348;2023-04-26T11:43:36;97524.53;;;14.68;49.86
70304;BME280;57712;48.752;11.348;2023-04-26T11:46:05;97524.53;;;13.41;49.43
70304;BME280;57712;48.752;11.348;2023-04-26T11:48:34;97526.59;;;14.04;51.21
70304;BME280;57712;48.752;11.348;2023-04-26T11:51:03;97529.78;;;14.53;47.46
70304;BME280;57712;48.752;11.348;2023-04-26T11:53:42;97539.50;;;14.20;45.93
70304;BME280;57712;48.752;11.348;2023-04-26T11:56:19;97526.06;;;14.09;49.11
70304;BME280;57712;48.752;11.348;2023-04-26T11:58:51;97536.75;;;14.07;47.28
70304;BME280;57712;48.752;11.348;2023-04-26T12:01:20;97538.00;;;13.64;46.66
70304;BME280;57712;48.752;11.348;2023-04-26T12:03:52;97532.22;;;13.04;47.10
70304;BME280;57712;48.752;11.348;2023-04-26T12:06:31;97536.94;;;13.74;49.32
70304;BME280;57712;48.752;11.348;2023-04-26T12:09:00;97530.00;;;13.70;48.02
70304;BME280;57712;48.752;11.348;2023-04-26T12:11:28;97533.41;;;13.61;49.23
70304;BME280;57712;48.752;11.348;2023-04-26T12:13:57;97530.72;;;13.16;49.19
70304;BME280;57712;48.752;11.348;2023-04-26T12:16:23;97528.59;;;12.78;49.39
70304;BME280;57712;48.752;11.348;2023-04-26T12:18:53;97534.31;;;12.22;48.24
70304;BME280;57712;48.752;11.348;2023-04-26T12:21:23;97526.81;;;12.39;49.27
70304;BME280;57712;48.752;11.348;2023-04-26T12:23:55;97520.44;;;12.75;48.61
70304;BME280;57712;48.752;11.348;2023-04-26T12:26:21;97525.41;;;12.80;53.68
70304;BME280;57712;48.752;11.348;2023-04-26T12:28:48;97529.00;;;12.93;56.10
70304;BME280;57712;48.752;11.348;2023-04-26T12:31:15;97510.09;;;12.95;53.69
70304;BME280;57712;48.752;11.348;2023-04-26T12:33:41;97518.56;;;13.29;50.48
70304;BME280;57712;48.752;11.348;2023-04-26T12:36:09;97524.22;;;13.39;51.23
70304;BME280;57712;48.752;11.348;2023-04-26T12:38:38;97507.63;;;13.55;50.81
70304;BME280;57712;48.752;11.348;2023-04-26T12:41:05;97510.47;;;13.39;48.31
70304;BME280;57712;48.752;11.348;2023-04-26T12:43:31;97507.97;;;13.57;48.77
70304;BME280;57712;48.752;11.348;2023-04-26T12:45:59;97514.94;;;13.33;47.34
70304;BME280;57712;48.752;11.348;2023-04-26T12:48:25;97512.88;;;13.37;51.22
70304;BME280;57712;48.752;11.348;2023-04-26T12:50:52;97507.97;;;12.70;50.03
70304;BME280;57712;48.752;11.348;2023-04-26T12:53:19;97500.31;;;12.78;49.72
70304;BME280;57712;48.752;11.348;2023-04-26T12:55:45;97509.94;;;12.86;52.28
70304;BME280;57712;48.752;11.348;2023-04-26T12:58:12;97505.38;;;13.08;51.24
70304;BME280;57712;48.752;11.348;2023-04-26T13:00:39;97503.13;;;13.19;51.74
70304;BME280;57712;48.752;11.348;2023-04-26T13:03:09;97503.13;;;13.19;54.38
70304;BME280;57712;48.752;11.348;2023-04-26T13:05:40;97495.75;;;13.16;52.10
70304;BME280;57712;48.752;11.348;2023-04-26T13:08:07;97504.50;;;13.40;49.87
70304;BME280;57712;48.752;11.348;2023-04-26T13:10:34;97497.91;;;13.38;49.88
70304;BME280;57712;48.752;11.348;2023-04-26T13:13:00;97499.66;;;13.03;50.61